createdAt,value
2022-12-14T00:00:08.367Z,38.95
2022-12-14T00:03:51.174Z,41.70
2022-12-14T00:07:33.009Z,43.47
2022-12-14T00:11:14.885Z,43.80
2022-12-14T00:14:56.611Z,42.55
2022-12-14T00:18:38.934Z,48.83
2022-12-14T00:22:20.997Z,45.25
2022-12-14T00:26:21.102Z,42.75
2022-12-14T00:30:02.876Z,45.28
2022-12-14T00:33:44.760Z,49.00
2022-12-14T00:37:26.543Z,48.05
2022-12-14T00:41:08.966Z,46.05
2022-12-14T00:44:50.726Z,44.28
2022-12-14T00:48:33.283Z,50.28
2022-12-14T00:52:15.114Z,45.33
2022-12-14T00:55:57.040Z,44.53
2022-12-14T00:59:38.881Z,45.58
2022-12-14T01:03:20.711Z,45.78
2022-12-14T01:07:02.494Z,44.85
2022-12-14T01:10:44.882Z,43.70
2022-12-14T01:14:26.736Z,44.13
2022-12-14T01:18:09.614Z,43.17
2022-12-14T01:21:53.382Z,51.95
2022-12-14T01:25:35.169Z,44.53
2022-12-14T01:29:17.129Z,50.70
2022-12-14T01:32:58.844Z,51.88
2022-12-14T01:36:40.709Z,50.50
2022-12-14T01:40:22.423Z,48.17
2022-12-14T01:44:10.183Z,50.55
2022-12-14T01:48:03.658Z,55.25
2022-12-14T01:51:53.142Z,46.00
2022-12-14T01:55:39.191Z,43.58
2022-12-14T01:59:31.281Z,45.47
2022-12-14T02:03:17.792Z,51.25
2022-12-14T02:07:01.280Z,51.47
2022-12-14T02:10:44.962Z,45.72
2022-12-14T02:14:26.994Z,48.15
2022-12-14T02:18:12.498Z,49.97
2022-12-14T02:22:24.709Z,45.47
2022-12-14T02:26:35.619Z,42.50
2022-12-14T02:30:26.221Z,47.58
2022-12-14T02:34:49.773Z,43.80
2022-12-14T02:38:54.376Z,45.08
2022-12-14T02:42:48.057Z,50.20
2022-12-14T02:46:32.586Z,51.35
2022-12-14T02:50:19.877Z,44.60
2022-12-14T02:54:08.310Z,46.03
2022-12-14T02:57:55.671Z,49.60
2022-12-14T03:01:39.122Z,49.80
2022-12-14T03:05:20.942Z,51.97
2022-12-14T03:09:13.319Z,43.15
2022-12-14T03:13:01.552Z,52.28
2022-12-14T03:16:50.042Z,39.92
2022-12-14T03:20:35.397Z,46.88
2022-12-14T03:24:28.450Z,46.10
2022-12-14T03:28:23.613Z,46.22
2022-12-14T03:32:12.127Z,43.92
2022-12-14T03:36:20.407Z,50.92
2022-12-14T03:40:02.428Z,39.38
2022-12-14T03:44:22.457Z,45.35
2022-12-14T03:48:30.661Z,45.55
2022-12-14T03:52:21.258Z,41.00
2022-12-14T03:56:12.302Z,40.30
2022-12-14T04:00:16.749Z,42.28
2022-12-14T04:04:17.422Z,44.13
2022-12-14T04:08:12.847Z,40.85
2022-12-14T04:12:38.511Z,42.58
2022-12-14T04:16:45.326Z,41.28
2022-12-14T04:20:52.479Z,46.78
2022-12-14T04:25:03.667Z,46.47
2022-12-14T04:29:13.007Z,41.72
2022-12-14T04:33:27.084Z,41.63
2022-12-14T04:37:14.915Z,40.05
2022-12-14T04:41:01.868Z,43.17
2022-12-14T04:44:52.119Z,40.45
2022-12-14T04:48:48.651Z,45.60
2022-12-14T04:52:40.825Z,43.73
2022-12-14T04:56:22.483Z,40.45
2022-12-14T05:00:05.694Z,44.42
2022-12-14T05:04:23.014Z,41.95
2022-12-14T05:08:04.659Z,37.00
2022-12-14T05:11:54.349Z,43.67
2022-12-14T05:15:43.383Z,42.00
2022-12-14T05:19:26.538Z,47.97
2022-12-14T05:23:08.691Z,41.28
2022-12-14T05:26:50.401Z,41.38
2022-12-14T05:30:33.110Z,38.47
2022-12-14T05:34:14.857Z,46.92
2022-12-14T05:37:56.719Z,50.58
2022-12-14T05:41:38.418Z,45.85
2022-12-14T05:45:20.190Z,49.85
2022-12-14T05:49:02.248Z,46.38
2022-12-14T05:52:43.976Z,49.45
2022-12-14T05:56:25.866Z,42.95
2022-12-14T06:00:08.572Z,49.10
2022-12-14T06:03:53.525Z,55.53
2022-12-14T06:07:35.273Z,53.65
2022-12-14T06:11:26.070Z,56.78
2022-12-14T06:15:08.557Z,54.42
2022-12-14T06:18:52.412Z,49.35
2022-12-14T06:22:34.214Z,57.22
2022-12-14T06:26:16.509Z,51.65
2022-12-14T06:29:58.310Z,51.10
2022-12-14T06:33:40.157Z,58.08
2022-12-14T06:37:21.891Z,59.80
2022-12-14T06:41:08.488Z,51.55
2022-12-14T06:44:50.693Z,44.43
2022-12-14T06:48:32.438Z,52.83
2022-12-14T06:52:14.159Z,53.47
2022-12-14T06:56:04.517Z,48.03
2022-12-14T06:59:46.291Z,51.38
2022-12-14T07:03:28.373Z,51.55
2022-12-14T07:07:10.780Z,51.78
2022-12-14T07:10:57.546Z,49.60
2022-12-14T07:14:42.380Z,46.10
2022-12-14T07:18:25.044Z,50.97
2022-12-14T07:22:06.762Z,50.70
2022-12-14T07:25:49.289Z,59.22
2022-12-14T07:29:34.758Z,47.30
2022-12-14T07:33:16.785Z,48.80
2022-12-14T07:36:58.526Z,46.72
2022-12-14T07:40:40.250Z,49.03
2022-12-14T07:44:21.974Z,39.35
2022-12-14T07:48:06.231Z,48.92
2022-12-14T07:51:48.212Z,42.35
2022-12-14T07:55:30.099Z,44.67
2022-12-14T07:59:19.287Z,43.38
2022-12-14T08:03:01.223Z,43.40
2022-12-14T08:06:43.395Z,45.88
2022-12-14T08:10:25.222Z,49.47
2022-12-14T08:14:11.911Z,48.63
2022-12-14T08:17:53.748Z,48.73
2022-12-14T08:21:35.473Z,38.63
2022-12-14T08:25:17.246Z,42.53
2022-12-14T08:28:58.966Z,45.00
2022-12-14T08:32:40.718Z,47.45
2022-12-14T08:36:26.718Z,42.63
2022-12-14T08:40:09.015Z,42.80
2022-12-14T08:43:56.302Z,40.42
2022-12-14T08:47:38.030Z,42.35
2022-12-14T08:51:20.492Z,36.75
2022-12-14T08:55:02.338Z,38.38
2022-12-14T08:58:44.701Z,37.72
2022-12-14T09:02:26.513Z,45.70
2022-12-14T09:06:10.298Z,36.63
2022-12-14T09:09:52.053Z,39.50
2022-12-14T09:13:34.466Z,40.55
2022-12-14T09:17:17.134Z,34.92
2022-12-14T09:20:58.915Z,41.40
2022-12-14T09:24:40.654Z,37.92
2022-12-14T09:28:22.394Z,33.47
2022-12-14T09:32:04.382Z,33.95
2022-12-14T09:35:46.094Z,37.05
2022-12-14T09:39:29.240Z,36.28
2022-12-14T09:43:21.714Z,35.92
2022-12-14T09:47:19.930Z,37.40
2022-12-14T09:51:02.068Z,39.97
2022-12-14T09:54:45.516Z,38.40
2022-12-14T09:58:33.539Z,40.35
2022-12-14T10:02:36.999Z,39.22
2022-12-14T10:06:36.683Z,37.13
2022-12-14T10:10:26.653Z,39.90
2022-12-14T10:14:29.215Z,33.72
2022-12-14T10:18:58.251Z,40.80
2022-12-14T10:22:39.687Z,42.40
2022-12-14T10:26:23.603Z,36.10
2022-12-14T10:30:14.365Z,41.40
2022-12-14T10:34:00.851Z,35.72
2022-12-14T10:37:45.794Z,35.08
2022-12-14T10:41:52.889Z,36.25
2022-12-14T10:45:57.688Z,38.63
2022-12-14T10:49:53.745Z,31.27
2022-12-14T10:53:49.780Z,31.98
2022-12-14T10:57:31.555Z,33.92
2022-12-14T11:01:15.444Z,32.47
2022-12-14T11:04:59.990Z,31.55
2022-12-14T11:08:41.787Z,34.58
2022-12-14T11:12:26.683Z,36.90
2022-12-14T11:16:25.318Z,33.70
2022-12-14T11:20:09.506Z,35.55
2022-12-14T11:23:54.560Z,29.67
2022-12-14T11:27:39.330Z,26.70
2022-12-14T11:31:21.113Z,29.67
2022-12-14T11:35:03.084Z,32.58
2022-12-14T11:38:55.933Z,30.45
2022-12-14T11:42:38.115Z,32.40
2022-12-14T11:46:20.733Z,31.35
2022-12-14T11:50:02.662Z,30.10
2022-12-14T11:54:00.254Z,30.48
2022-12-14T11:57:58.301Z,24.88
2022-12-14T12:01:40.125Z,27.35
2022-12-14T12:05:23.639Z,28.27
2022-12-14T12:09:27.473Z,31.33
2022-12-14T12:13:28.382Z,25.42
2022-12-14T12:17:20.948Z,31.70
2022-12-14T12:21:11.333Z,28.52
2022-12-14T12:29:06.519Z,28.92
2022-12-14T12:32:52.508Z,27.33
2022-12-14T12:36:34.278Z,30.08
2022-12-14T12:40:25.992Z,29.30
2022-12-14T12:44:32.380Z,29.73
2022-12-14T12:48:36.199Z,23.33
2022-12-14T12:52:30.702Z,26.83
2022-12-14T12:56:35.466Z,29.95
2022-12-14T13:00:26.847Z,28.42
2022-12-14T13:04:18.358Z,27.25
2022-12-14T13:08:06.930Z,32.75
2022-12-14T13:11:49.430Z,32.95
2022-12-14T13:15:59.236Z,34.03
2022-12-14T13:19:50.675Z,29.73
2022-12-14T13:23:44.878Z,31.20
2022-12-14T13:28:02.351Z,30.25
2022-12-14T13:32:09.623Z,26.73
2022-12-14T13:40:26.101Z,34.63
2022-12-14T13:44:47.651Z,35.63
2022-12-14T13:48:38.923Z,37.10
2022-12-14T13:52:28.632Z,31.15
2022-12-14T13:56:26.521Z,31.42
2022-12-14T14:00:45.150Z,26.80
2022-12-14T14:04:31.822Z,28.48
2022-12-14T14:08:37.626Z,28.60
2022-12-14T14:12:24.398Z,28.52
2022-12-14T14:16:27.850Z,33.05
2022-12-14T14:20:46.532Z,27.33
2022-12-14T14:24:28.929Z,26.15
2022-12-14T14:28:15.225Z,28.90
2022-12-14T14:32:06.484Z,29.55
2022-12-14T14:35:50.013Z,29.52
2022-12-14T14:39:56.143Z,31.55
2022-12-14T14:43:49.839Z,25.52
2022-12-14T14:47:35.723Z,29.30
2022-12-14T14:51:20.611Z,29.45
2022-12-14T14:59:44.264Z,28.42
2022-12-14T15:03:51.942Z,28.10
2022-12-14T15:07:35.119Z,29.30
2022-12-14T15:11:22.817Z,30.75
2022-12-14T15:15:38.632Z,30.25
2022-12-14T15:19:23.177Z,27.25
2022-12-14T15:23:06.670Z,29.33
2022-12-14T15:26:49.062Z,29.13
2022-12-14T15:30:32.049Z,23.10
2022-12-14T15:34:17.784Z,26.98
2022-12-14T15:38:09.041Z,24.30
2022-12-14T15:41:50.771Z,26.42
2022-12-14T15:45:42.723Z,28.40
2022-12-14T15:49:24.516Z,28.30
2022-12-14T15:53:31.995Z,26.92
2022-12-14T15:57:19.845Z,28.95
2022-12-14T16:04:56.942Z,31.17
2022-12-14T16:08:44.820Z,31.05
2022-12-14T16:12:44.198Z,32.28
2022-12-14T16:16:26.946Z,34.75
2022-12-14T16:20:08.669Z,31.92
2022-12-14T16:23:50.977Z,28.65
2022-12-14T16:27:37.835Z,29.05
2022-12-14T16:31:22.481Z,26.45
2022-12-14T16:35:04.507Z,25.45
2022-12-14T16:39:16.936Z,27.73
2022-12-14T16:42:58.716Z,26.92
2022-12-14T16:46:42.630Z,30.30
2022-12-14T16:50:55.652Z,25.65
2022-12-14T16:54:32.699Z,27.15
2022-12-14T16:58:20.263Z,28.00
2022-12-14T17:02:02.367Z,29.20
2022-12-14T17:05:52.246Z,31.33
2022-12-14T17:09:35.280Z,26.23
2022-12-14T17:13:17.127Z,28.80
2022-12-14T17:17:01.648Z,29.13
2022-12-14T17:20:43.574Z,28.48
2022-12-14T17:24:25.689Z,30.70
2022-12-14T17:28:34.794Z,29.13
2022-12-14T17:32:18.006Z,34.33
2022-12-14T17:35:59.852Z,28.73
2022-12-14T17:39:41.616Z,30.90
2022-12-14T17:43:30.025Z,28.85
2022-12-14T17:47:14.018Z,29.70
2022-12-14T17:50:56.194Z,29.63
2022-12-14T17:54:38.340Z,34.00
2022-12-14T17:58:21.357Z,29.45
2022-12-14T18:02:03.263Z,24.33
2022-12-14T18:05:49.238Z,29.20
2022-12-14T18:09:33.054Z,28.85
2022-12-14T18:13:15.532Z,34.70
2022-12-14T18:17:00.903Z,34.78
2022-12-14T18:20:49.536Z,36.72
2022-12-14T18:24:31.691Z,34.53
2022-12-14T18:28:14.002Z,35.55
2022-12-14T18:31:55.778Z,36.40
2022-12-14T18:35:37.644Z,39.40
2022-12-14T18:39:19.847Z,41.05
2022-12-14T18:43:01.883Z,36.45
2022-12-14T18:46:43.608Z,34.80
2022-12-14T18:54:12.670Z,35.65
2022-12-14T18:57:56.730Z,38.00
2022-12-14T19:01:39.239Z,40.28
2022-12-14T19:05:25.890Z,44.03
2022-12-14T19:09:08.251Z,50.97
2022-12-14T19:12:50.861Z,44.42
2022-12-14T19:16:32.863Z,42.55
2022-12-14T19:20:16.986Z,37.90
2022-12-14T19:24:02.096Z,43.65
2022-12-14T19:28:25.656Z,35.08
2022-12-14T19:31:45.856Z,42.17
2022-12-14T19:35:27.617Z,36.72
2022-12-14T19:39:09.406Z,34.85
2022-12-14T19:42:51.322Z,36.80
2022-12-14T19:46:33.095Z,33.50
2022-12-14T19:50:15.875Z,37.15
2022-12-14T19:53:57.729Z,36.72
2022-12-14T19:57:40.209Z,32.03
2022-12-14T20:01:22.121Z,40.72
2022-12-14T20:05:05.226Z,38.22
2022-12-14T20:08:49.358Z,32.13
2022-12-14T20:12:33.463Z,45.83
2022-12-14T20:16:18.998Z,37.22
2022-12-14T20:20:01.372Z,38.38
2022-12-14T20:23:47.515Z,40.20
2022-12-14T20:27:30.023Z,44.22
2022-12-14T20:31:15.984Z,41.53
2022-12-14T20:34:58.049Z,38.25
2022-12-14T20:38:40.721Z,36.83
2022-12-14T20:42:22.881Z,37.60
2022-12-14T20:46:06.055Z,35.03
2022-12-14T20:49:48.626Z,38.38
2022-12-14T20:53:32.077Z,33.10
2022-12-14T20:57:15.234Z,37.15
2022-12-14T21:00:57.035Z,38.72
2022-12-14T21:04:38.773Z,34.65
2022-12-14T21:08:21.459Z,35.78
2022-12-14T21:12:22.873Z,38.70
2022-12-14T21:16:09.819Z,41.65
2022-12-14T21:19:51.996Z,41.10
2022-12-14T21:23:34.760Z,37.97
2022-12-14T21:27:19.462Z,32.88
2022-12-14T21:31:05.835Z,32.75
2022-12-14T21:34:48.033Z,33.65
2022-12-14T21:38:29.816Z,35.40
2022-12-14T21:42:15.390Z,36.97
2022-12-14T21:45:57.245Z,35.70
2022-12-14T21:49:40.470Z,40.10
2022-12-14T21:53:22.378Z,35.83
2022-12-14T21:57:22.776Z,40.55
2022-12-14T22:01:09.215Z,37.28
2022-12-14T22:04:55.941Z,37.10
2022-12-14T22:08:38.171Z,41.75
2022-12-14T22:12:20.076Z,33.88
2022-12-14T22:16:06.140Z,35.42
2022-12-14T22:19:48.945Z,39.92
2022-12-14T22:23:34.141Z,40.42
2022-12-14T22:27:17.214Z,36.13
2022-12-14T22:31:05.036Z,44.75
2022-12-14T22:34:46.713Z,45.80
2022-12-14T22:38:32.345Z,33.92
2022-12-14T22:42:14.112Z,39.92
2022-12-14T22:45:56.400Z,35.75
2022-12-14T22:49:38.123Z,40.05
2022-12-14T22:53:19.845Z,33.88
2022-12-14T22:57:12.635Z,40.25
2022-12-14T23:00:54.626Z,36.63
2022-12-14T23:04:38.140Z,44.85
2022-12-14T23:08:20.473Z,36.03
2022-12-14T23:12:22.061Z,41.20
2022-12-14T23:16:23.010Z,41.85
2022-12-14T23:20:24.183Z,43.00
2022-12-14T23:24:25.770Z,37.92
2022-12-14T23:28:26.253Z,38.92
2022-12-14T23:32:26.766Z,40.47
2022-12-14T23:36:27.337Z,39.42
2022-12-14T23:40:28.251Z,38.45
2022-12-14T23:44:28.795Z,44.72
2022-12-14T23:48:29.361Z,35.55
2022-12-14T23:52:29.770Z,40.35
2022-12-14T23:56:30.178Z,31.83
